createdAt,value
2022-10-22T00:03:16.528Z,99881.56
2022-10-22T00:08:18.220Z,99877.38
2022-10-22T00:13:20.735Z,99875.66
2022-10-22T00:18:22.306Z,99882.16
2022-10-22T00:23:23.965Z,99881.31
2022-10-22T00:28:25.748Z,99876.16
2022-10-22T00:33:28.786Z,99867.75
2022-10-22T00:38:30.429Z,99859.59
2022-10-22T00:43:32.579Z,99852.44
2022-10-22T00:48:34.240Z,99858.72
2022-10-22T00:53:39.686Z,99845.13
2022-10-22T00:58:47.664Z,99814.97
2022-10-22T01:03:50.425Z,99817.84
2022-10-22T01:09:01.412Z,99810.91
2022-10-22T01:15:00.029Z,99817.66
2022-10-22T01:20:24.170Z,99823.63
2022-10-22T01:25:37.276Z,99842.34
2022-10-22T01:30:40.792Z,99854.59
2022-10-22T01:35:45.100Z,99833.25
2022-10-22T01:40:47.688Z,99832.06
2022-10-22T01:45:54.323Z,99809.06
2022-10-22T01:50:58.597Z,99807.44
2022-10-22T01:56:22.553Z,99819.31
2022-10-22T02:01:33.200Z,99814.38
2022-10-22T02:06:38.744Z,99813.03
2022-10-22T02:11:41.866Z,99807.38
2022-10-22T02:16:45.579Z,99779.69
2022-10-22T02:21:47.269Z,99793.69
2022-10-22T02:27:00.487Z,99797.56
2022-10-22T02:32:05.912Z,99804.34
2022-10-22T02:37:08.767Z,99807.81
2022-10-22T02:42:12.202Z,99817.78
2022-10-22T02:47:13.809Z,99822.56
2022-10-22T02:52:15.380Z,99819.38
2022-10-22T02:57:17.147Z,99804.03
2022-10-22T03:02:18.750Z,99794.81
2022-10-22T03:07:20.418Z,99792.09
2022-10-22T03:12:22.122Z,99811.19
2022-10-22T03:17:23.673Z,99816.72
2022-10-22T03:22:29.075Z,99823.47
2022-10-22T03:27:30.690Z,99810.00
2022-10-22T03:32:32.286Z,99808.28
2022-10-22T03:37:34.757Z,99803.78
2022-10-22T03:42:36.313Z,99800.44
2022-10-22T03:47:38.233Z,99803.47
2022-10-22T03:52:40.825Z,99809.38
2022-10-22T03:57:42.536Z,99813.25
2022-10-22T04:02:44.251Z,99817.31
2022-10-22T04:07:45.856Z,99812.31
2022-10-22T04:12:48.782Z,99804.56
2022-10-22T04:17:50.348Z,99804.72
2022-10-22T04:22:51.984Z,99799.72
2022-10-22T04:27:53.555Z,99779.78
2022-10-22T04:32:55.152Z,99789.34
2022-10-22T04:37:56.876Z,99796.19
2022-10-22T04:42:58.907Z,99799.75
2022-10-22T04:48:00.486Z,99809.06
2022-10-22T04:53:02.028Z,99814.31
2022-10-22T04:58:03.749Z,99833.94
2022-10-22T05:03:05.837Z,99816.63
2022-10-22T05:08:07.380Z,99802.19
2022-10-22T05:13:08.927Z,99812.25
2022-10-22T05:18:10.487Z,99817.91
2022-10-22T05:23:12.045Z,99834.59
2022-10-22T05:28:13.603Z,99825.16
2022-10-22T05:33:15.174Z,99837.78
2022-10-22T05:38:17.932Z,99847.19
2022-10-22T05:43:19.536Z,99866.81
2022-10-22T05:48:21.166Z,99868.59
2022-10-22T05:53:22.930Z,99888.31
2022-10-22T05:58:24.464Z,99889.75
2022-10-22T06:03:26.037Z,99897.22
2022-10-22T06:08:28.997Z,99880.47
2022-10-22T06:13:32.820Z,99884.72
2022-10-22T06:18:34.653Z,99883.09
2022-10-22T06:23:37.534Z,99867.91
2022-10-22T06:28:39.308Z,99870.53
2022-10-22T06:33:43.848Z,99869.53
2022-10-22T06:38:45.858Z,99872.97
2022-10-22T06:43:47.541Z,99872.44
2022-10-22T06:48:59.295Z,99881.81
2022-10-22T06:54:00.917Z,99875.16
2022-10-22T06:59:03.178Z,99876.84
2022-10-22T07:04:05.720Z,99889.53
2022-10-22T07:09:07.547Z,99883.59
2022-10-22T07:14:10.164Z,99891.88
2022-10-22T07:19:12.011Z,99885.66
2022-10-22T07:24:13.615Z,99898.06
2022-10-22T07:29:18.028Z,99903.63
2022-10-22T07:39:22.107Z,99914.19
2022-10-22T07:44:23.655Z,99912.19
2022-10-22T07:49:25.284Z,99910.78
2022-10-22T07:54:26.918Z,99915.63
2022-10-22T07:59:28.533Z,99915.06
2022-10-22T08:04:30.084Z,99920.34
2022-10-22T08:09:32.014Z,99925.91
2022-10-22T08:14:33.571Z,99919.78
2022-10-22T08:19:35.510Z,99922.47
2022-10-22T08:24:37.099Z,99922.19
2022-10-22T08:29:38.893Z,99925.06
2022-10-22T08:34:40.519Z,99935.06
2022-10-22T08:39:42.067Z,99944.19
2022-10-22T08:44:52.483Z,99952.50
2022-10-22T08:49:55.552Z,99964.63
2022-10-22T08:54:59.840Z,99962.63
2022-10-22T09:00:15.341Z,99939.34
2022-10-22T09:05:58.208Z,99945.22
2022-10-22T09:11:32.616Z,99944.91
2022-10-22T09:16:39.234Z,99950.78
2022-10-22T09:22:05.382Z,99957.31
2022-10-22T09:27:25.680Z,99959.59
2022-10-22T09:32:28.560Z,99976.72
2022-10-22T09:37:30.256Z,99974.56
2022-10-22T09:42:33.649Z,99954.38
2022-10-22T09:53:25.014Z,99963.75
2022-10-22T09:58:27.494Z,99966.91
2022-10-22T10:03:35.425Z,99970.59
2022-10-22T10:08:37.117Z,99962.56
2022-10-22T10:13:41.537Z,99975.41
2022-10-22T10:19:04.849Z,99975.09
2022-10-22T10:24:14.481Z,99962.63
2022-10-22T10:29:45.984Z,99954.16
2022-10-22T10:35:19.472Z,99965.03
2022-10-22T10:40:42.654Z,99966.72
2022-10-22T10:46:05.442Z,99966.72
2022-10-22T10:51:37.995Z,99963.22
2022-10-22T10:56:48.195Z,99979.56
2022-10-22T11:02:40.566Z,99971.97
2022-10-22T11:07:52.115Z,99976.38
2022-10-22T11:13:03.349Z,99970.47
2022-10-22T11:18:35.584Z,99956.16
2022-10-22T11:23:44.228Z,99954.66
2022-10-22T11:28:52.659Z,99955.16
2022-10-22T11:34:33.394Z,99957.41
2022-10-22T11:39:35.622Z,99962.69
2022-10-22T11:45:02.251Z,99955.66
2022-10-22T11:50:03.869Z,99960.22
2022-10-22T11:55:31.729Z,99951.09
2022-10-22T12:00:40.469Z,99950.03
2022-10-22T12:05:42.083Z,99963.72
2022-10-22T12:10:57.579Z,99953.47
2022-10-22T12:16:03.755Z,99949.41
2022-10-22T12:21:05.546Z,99938.41
2022-10-22T12:26:23.266Z,99949.72
2022-10-22T12:31:25.187Z,99950.66
2022-10-22T12:36:28.716Z,99946.31
2022-10-22T12:41:35.479Z,99946.16
2022-10-22T12:46:37.059Z,99944.19
2022-10-22T12:51:38.690Z,99947.16
2022-10-22T12:56:40.519Z,99943.28
2022-10-22T13:01:43.622Z,99946.63
2022-10-22T13:07:04.957Z,99929.75
2022-10-22T13:12:08.583Z,99933.25
2022-10-22T13:17:23.896Z,99955.94
2022-10-22T13:22:31.736Z,99948.59
2022-10-22T13:27:33.398Z,99956.81
2022-10-22T13:32:35.094Z,99962.41
2022-10-22T13:37:38.723Z,99960.16
2022-10-22T13:42:40.735Z,99958.38
2022-10-22T13:47:46.433Z,99976.59
2022-10-22T13:52:54.441Z,99973.91
2022-10-22T13:58:14.148Z,99976.50
2022-10-22T14:03:19.398Z,99977.66
2022-10-22T14:08:23.132Z,99997.69
2022-10-22T14:13:24.774Z,99979.03
2022-10-22T14:18:31.484Z,99972.88
2022-10-22T14:23:35.144Z,99979.09
2022-10-22T14:28:41.364Z,99991.72
2022-10-22T14:33:53.768Z,99991.00
2022-10-22T14:38:55.377Z,100010.59
2022-10-22T14:43:57.104Z,100005.59
2022-10-22T14:48:58.664Z,100010.50
2022-10-22T14:54:00.270Z,100011.94
2022-10-22T14:59:01.830Z,100020.38
2022-10-22T15:04:03.504Z,100023.19
2022-10-22T15:09:05.172Z,100019.31
2022-10-22T15:14:06.868Z,100017.59
2022-10-22T15:19:08.485Z,100023.03
2022-10-22T15:24:10.096Z,100030.47
2022-10-22T15:29:12.181Z,100032.22
2022-10-22T15:34:18.011Z,100040.53
2022-10-22T15:39:19.584Z,100042.78
2022-10-22T15:44:24.584Z,100054.78
2022-10-22T15:49:28.140Z,100054.50
2022-10-22T15:54:31.562Z,100063.13
2022-10-22T15:59:33.190Z,100074.56
2022-10-22T16:04:34.793Z,100083.28
2022-10-22T16:09:36.364Z,100091.44
2022-10-22T16:14:37.986Z,100089.69
2022-10-22T16:19:39.542Z,100095.13
2022-10-22T16:24:41.222Z,100098.84
2022-10-22T16:29:42.778Z,100103.16
2022-10-22T16:34:44.341Z,100108.56
2022-10-22T16:39:46.231Z,100108.56
2022-10-22T16:44:47.965Z,100110.59
2022-10-22T16:49:49.544Z,100120.00
2022-10-22T16:54:51.091Z,100124.84
2022-10-22T16:59:52.836Z,100130.28
2022-10-22T17:04:54.384Z,100137.75
2022-10-22T17:09:55.936Z,100146.03
2022-10-22T17:14:57.489Z,100144.06
2022-10-22T17:19:59.273Z,100144.34
2022-10-22T17:25:11.755Z,100161.50
2022-10-22T17:30:20.943Z,100164.34
2022-10-22T17:35:25.087Z,100174.06
2022-10-22T17:40:27.100Z,100176.78
2022-10-22T17:45:28.725Z,100176.09
2022-10-22T17:50:30.434Z,100183.22
2022-10-22T17:55:34.733Z,100184.34
2022-10-22T18:00:36.376Z,100194.38
2022-10-22T18:05:37.921Z,100196.50
2022-10-22T18:10:40.438Z,100202.66
2022-10-22T18:15:41.990Z,100199.66
2022-10-22T18:20:48.981Z,100209.50
2022-10-22T18:25:50.928Z,100206.94
2022-10-22T18:30:52.574Z,100217.94
2022-10-22T18:35:54.214Z,100207.38
2022-10-22T18:40:55.767Z,100209.53
2022-10-22T18:45:57.736Z,100209.94
2022-10-22T18:51:04.463Z,100219.53
2022-10-22T18:56:07.832Z,100223.53
2022-10-22T19:01:21.195Z,100225.25
2022-10-22T19:06:34.333Z,100230.25
2022-10-22T19:11:38.422Z,100231.28
2022-10-22T19:16:40.032Z,100236.09
2022-10-22T19:21:41.690Z,100237.84
2022-10-22T19:26:43.699Z,100246.00
2022-10-22T19:31:45.959Z,100264.44
2022-10-22T19:36:47.552Z,100256.97
2022-10-22T19:41:49.274Z,100272.88
2022-10-22T19:46:50.903Z,100269.50
2022-10-22T19:51:52.682Z,100272.38
2022-10-22T19:56:54.414Z,100279.38
2022-10-22T20:01:56.095Z,100275.94
2022-10-22T20:06:57.893Z,100284.38
2022-10-22T20:11:59.524Z,100289.81
2022-10-22T20:17:01.171Z,100295.78
2022-10-22T20:22:02.925Z,100297.94
2022-10-22T20:27:04.527Z,100305.91
2022-10-22T20:32:08.097Z,100304.94
2022-10-22T20:37:10.561Z,100304.38
2022-10-22T20:42:12.107Z,100300.94
2022-10-22T20:47:13.744Z,100308.34
2022-10-22T20:52:15.317Z,100305.19
2022-10-22T20:57:16.932Z,100309.03
2022-10-22T21:02:18.583Z,100318.00
2022-10-22T21:07:20.134Z,100316.81
2022-10-22T21:12:21.696Z,100320.53
2022-10-22T21:17:23.332Z,100318.09
2022-10-22T21:22:24.860Z,100323.06
2022-10-22T21:27:26.511Z,100313.22
2022-10-22T21:32:28.426Z,100322.38
2022-10-22T21:37:30.235Z,100323.34
2022-10-22T21:42:31.816Z,100330.34
2022-10-22T21:47:33.412Z,100334.81
2022-10-22T21:52:34.999Z,100333.66
2022-10-22T21:57:36.820Z,100338.38
2022-10-22T22:02:38.462Z,100344.97
2022-10-22T22:07:40.239Z,100335.13
2022-10-22T22:12:42.005Z,100345.97
2022-10-22T22:17:43.733Z,100342.66
2022-10-22T22:22:45.297Z,100353.91
2022-10-22T22:27:46.863Z,100352.56
2022-10-22T22:32:48.430Z,100350.53
2022-10-22T22:37:49.971Z,100349.59
2022-10-22T22:42:51.521Z,100355.44
2022-10-22T22:47:53.055Z,100356.94
2022-10-22T22:52:54.593Z,100364.16
2022-10-22T22:57:56.621Z,100358.63
2022-10-22T23:02:58.217Z,100359.91
2022-10-22T23:08:00.408Z,100355.13
2022-10-22T23:13:02.008Z,100363.66
2022-10-22T23:18:03.683Z,100363.31
2022-10-22T23:23:08.112Z,100368.25
2022-10-22T23:28:09.676Z,100367.50
2022-10-22T23:33:11.742Z,100376.13
2022-10-22T23:38:13.404Z,100369.00
2022-10-22T23:43:14.973Z,100367.50
2022-10-22T23:48:16.574Z,100370.47
2022-10-22T23:53:18.219Z,100378.34
2022-10-22T23:58:19.833Z,100378.59
